createdAt,value
2023-04-23T00:01:45.765Z,91.78
2023-04-23T00:04:18.170Z,91.78
2023-04-23T00:06:48.256Z,91.97
2023-04-23T00:09:16.956Z,92.39
2023-04-23T00:11:44.779Z,91.77
2023-04-23T00:14:12.967Z,91.26
2023-04-23T00:16:40.807Z,91.02
2023-04-23T00:19:08.440Z,91.73
2023-04-23T00:21:37.390Z,92.65
2023-04-23T00:24:05.460Z,92.90
2023-04-23T00:26:33.164Z,92.78
2023-04-23T00:29:00.774Z,94.06
2023-04-23T00:31:30.510Z,94.59
2023-04-23T00:33:58.182Z,94.74
2023-04-23T00:36:26.474Z,94.60
2023-04-23T00:38:55.460Z,93.30
2023-04-23T00:41:24.711Z,95.04
2023-04-23T00:43:53.754Z,95.15
2023-04-23T00:46:21.592Z,95.11
2023-04-23T00:48:49.803Z,95.52
2023-04-23T00:51:17.725Z,95.19
2023-04-23T00:53:45.331Z,95.09
2023-04-23T00:56:15.388Z,94.88
2023-04-23T00:58:43.216Z,95.13
2023-04-23T01:01:12.284Z,95.37
2023-04-23T01:03:42.323Z,95.76
2023-04-23T01:06:10.099Z,95.69
2023-04-23T01:08:39.209Z,95.10
2023-04-23T01:11:07.329Z,95.41
2023-04-23T01:13:36.468Z,95.53
2023-04-23T01:16:04.219Z,95.03
2023-04-23T01:18:31.852Z,95.17
2023-04-23T01:20:59.944Z,95.15
2023-04-23T01:23:29.424Z,94.76
2023-04-23T01:25:57.584Z,94.90
2023-04-23T01:28:25.450Z,94.78
2023-04-23T01:30:53.669Z,95.15
2023-04-23T01:33:21.706Z,95.08
2023-04-23T01:35:51.163Z,95.19
2023-04-23T01:38:20.830Z,95.01
2023-04-23T01:40:49.873Z,95.11
2023-04-23T01:43:18.225Z,95.54
2023-04-23T01:45:45.945Z,95.22
2023-04-23T01:48:13.596Z,95.62
2023-04-23T01:50:41.802Z,95.85
2023-04-23T01:53:09.378Z,95.63
2023-04-23T01:55:38.923Z,95.88
2023-04-23T01:58:08.185Z,95.88
2023-04-23T02:00:35.865Z,95.72
2023-04-23T02:03:03.720Z,96.07
2023-04-23T02:05:34.515Z,95.91
2023-04-23T02:08:03.643Z,95.60
2023-04-23T02:10:31.735Z,95.32
2023-04-23T02:13:00.055Z,95.33
2023-04-23T02:15:29.238Z,95.35
2023-04-23T02:17:57.252Z,95.32
2023-04-23T02:20:25.201Z,95.24
2023-04-23T02:22:52.999Z,94.91
2023-04-23T02:25:21.871Z,94.48
2023-04-23T02:27:49.540Z,94.50
2023-04-23T02:30:17.321Z,94.17
2023-04-23T02:32:46.452Z,94.61
2023-04-23T02:35:14.307Z,94.42
2023-04-23T02:37:41.891Z,94.93
2023-04-23T02:40:10.706Z,94.95
2023-04-23T02:42:38.284Z,94.32
2023-04-23T02:45:07.137Z,94.08
2023-04-23T02:47:35.042Z,94.12
2023-04-23T02:50:05.915Z,94.55
2023-04-23T02:52:33.928Z,94.51
2023-04-23T02:55:03.827Z,94.89
2023-04-23T02:57:31.591Z,95.25
2023-04-23T02:59:59.294Z,95.48
2023-04-23T03:02:34.591Z,96.27
2023-04-23T03:05:03.765Z,96.81
2023-04-23T03:07:31.755Z,97.07
2023-04-23T03:09:59.376Z,97.30
2023-04-23T03:12:27.091Z,97.77
2023-04-23T03:14:54.714Z,97.63
2023-04-23T03:17:24.260Z,96.32
2023-04-23T03:19:52.394Z,97.31
2023-04-23T03:22:21.863Z,98.39
2023-04-23T03:24:49.502Z,96.57
2023-04-23T03:27:17.227Z,97.05
2023-04-23T03:29:44.815Z,97.77
2023-04-23T03:32:12.389Z,98.06
2023-04-23T03:34:40.242Z,98.05
2023-04-23T03:37:08.040Z,98.36
2023-04-23T03:39:39.564Z,98.79
2023-04-23T03:42:08.719Z,98.51
2023-04-23T03:44:38.691Z,98.53
2023-04-23T03:47:06.924Z,98.12
2023-04-23T03:49:36.353Z,97.31
2023-04-23T03:52:04.167Z,97.70
2023-04-23T03:54:33.422Z,97.64
2023-04-23T03:57:09.923Z,97.75
2023-04-23T03:59:46.358Z,97.72
2023-04-23T04:02:14.524Z,97.36
2023-04-23T04:04:43.399Z,97.48
2023-04-23T04:07:12.023Z,97.26
2023-04-23T04:09:40.006Z,96.80
2023-04-23T04:12:09.191Z,96.34
2023-04-23T04:14:36.892Z,96.96
2023-04-23T04:17:04.438Z,97.10
2023-04-23T04:19:31.998Z,95.85
2023-04-23T04:21:59.658Z,96.64
2023-04-23T04:24:27.292Z,96.43
2023-04-23T04:26:54.938Z,97.03
2023-04-23T04:29:24.800Z,97.48
2023-04-23T04:31:52.460Z,97.34
2023-04-23T04:34:20.181Z,97.88
2023-04-23T04:36:47.844Z,98.46
2023-04-23T04:39:15.741Z,98.54
2023-04-23T04:41:43.479Z,99.74
2023-04-23T04:44:11.087Z,99.54
2023-04-23T04:46:40.565Z,100.00
2023-04-23T04:49:09.093Z,99.78
2023-04-23T04:51:37.750Z,100.00
2023-04-23T04:54:06.221Z,100.00
2023-04-23T04:56:34.098Z,100.00
2023-04-23T04:59:02.344Z,100.00
2023-04-23T05:01:30.912Z,99.07
2023-04-23T05:04:00.622Z,98.71
2023-04-23T05:06:29.099Z,98.93
2023-04-23T05:08:56.969Z,98.68
2023-04-23T05:11:24.598Z,98.75
2023-04-23T05:13:52.630Z,99.21
2023-04-23T05:16:20.557Z,99.36
2023-04-23T05:18:48.158Z,99.76
2023-04-23T05:21:17.453Z,100.00
2023-04-23T05:23:45.017Z,99.74
2023-04-23T05:26:12.633Z,99.63
2023-04-23T05:28:40.470Z,99.57
2023-04-23T05:31:08.031Z,99.54
2023-04-23T05:33:46.309Z,99.84
2023-04-23T05:36:19.248Z,99.64
2023-04-23T05:38:48.539Z,99.25
2023-04-23T05:41:16.456Z,98.80
2023-04-23T05:43:44.272Z,98.02
2023-04-23T05:46:11.873Z,98.09
2023-04-23T05:48:39.465Z,98.17
2023-04-23T05:51:07.106Z,98.29
2023-04-23T05:53:36.273Z,98.52
2023-04-23T05:56:03.843Z,98.42
2023-04-23T05:58:31.481Z,98.26
2023-04-23T06:00:59.273Z,98.23
2023-04-23T06:03:27.431Z,98.47
2023-04-23T06:05:55.262Z,99.02
2023-04-23T06:08:24.950Z,98.70
2023-04-23T06:10:55.811Z,98.20
2023-04-23T06:13:23.387Z,98.54
2023-04-23T06:15:51.003Z,98.06
2023-04-23T06:18:18.580Z,97.45
2023-04-23T06:20:47.271Z,96.53
2023-04-23T06:23:15.157Z,96.28
2023-04-23T06:25:42.745Z,96.63
2023-04-23T06:28:11.628Z,97.56
2023-04-23T06:30:55.379Z,97.14
2023-04-23T06:33:23.503Z,97.45
2023-04-23T06:35:51.901Z,97.39
2023-04-23T06:38:21.243Z,96.99
2023-04-23T06:40:48.973Z,96.61
2023-04-23T06:43:18.002Z,96.46
2023-04-23T06:46:15.045Z,95.96
2023-04-23T06:48:42.631Z,95.49
2023-04-23T06:51:10.328Z,94.96
2023-04-23T06:53:37.975Z,94.29
2023-04-23T06:56:05.801Z,94.08
2023-04-23T06:58:34.876Z,93.74
2023-04-23T07:01:11.510Z,92.55
2023-04-23T07:03:39.369Z,92.44
2023-04-23T07:06:07.424Z,90.95
2023-04-23T07:08:35.086Z,89.16
2023-04-23T07:11:02.898Z,87.17
2023-04-23T07:13:30.466Z,87.09
2023-04-23T07:15:59.582Z,87.82
2023-04-23T07:18:27.116Z,87.13
2023-04-23T07:20:54.800Z,86.73
2023-04-23T07:23:22.384Z,84.72
2023-04-23T07:25:49.930Z,80.10
2023-04-23T07:28:17.634Z,79.91
2023-04-23T07:30:45.337Z,80.10
2023-04-23T07:33:14.605Z,76.25
2023-04-23T07:35:42.209Z,76.43
2023-04-23T07:38:09.780Z,76.24
2023-04-23T07:40:37.352Z,75.74
2023-04-23T07:43:05.078Z,75.87
2023-04-23T07:45:32.657Z,75.66
2023-04-23T07:48:02.190Z,74.97
2023-04-23T07:50:31.162Z,75.45
2023-04-23T07:52:59.006Z,75.70
2023-04-23T07:55:26.591Z,75.34
2023-04-23T07:57:54.183Z,73.82
2023-04-23T08:00:21.981Z,72.66
2023-04-23T08:02:51.811Z,72.89
2023-04-23T08:05:19.645Z,71.93
2023-04-23T08:07:48.565Z,71.94
2023-04-23T08:10:16.187Z,72.45
2023-04-23T08:12:43.902Z,72.26
2023-04-23T08:15:12.455Z,73.24
2023-04-23T08:17:42.812Z,72.91
2023-04-23T08:20:11.034Z,72.08
2023-04-23T08:22:38.612Z,72.67
2023-04-23T08:25:08.561Z,72.64
2023-04-23T08:27:36.556Z,72.96
2023-04-23T08:30:04.482Z,72.09
2023-04-23T08:32:32.133Z,71.13
2023-04-23T08:34:59.731Z,71.24
2023-04-23T08:37:31.453Z,70.04
2023-04-23T08:39:59.327Z,67.20
2023-04-23T08:42:38.539Z,66.25
2023-04-23T08:45:07.398Z,65.80
2023-04-23T08:47:35.637Z,65.31
2023-04-23T08:50:05.456Z,64.02
2023-04-23T08:52:35.259Z,64.61
2023-04-23T08:55:07.657Z,65.84
2023-04-23T08:57:36.779Z,65.78
2023-04-23T09:00:06.711Z,65.67
2023-04-23T09:02:35.865Z,66.15
2023-04-23T09:05:04.193Z,65.87
2023-04-23T09:07:31.820Z,63.89
2023-04-23T09:09:59.544Z,64.96
2023-04-23T09:12:27.825Z,62.10
2023-04-23T09:14:57.864Z,62.95
2023-04-23T09:17:30.119Z,60.53
2023-04-23T09:19:58.471Z,62.31
2023-04-23T09:22:44.488Z,56.91
2023-04-23T09:25:15.346Z,58.46
2023-04-23T09:27:43.030Z,57.63
2023-04-23T09:30:13.214Z,59.13
2023-04-23T09:32:42.458Z,58.41
2023-04-23T09:35:13.480Z,58.03
2023-04-23T09:37:43.435Z,58.31
2023-04-23T09:40:14.651Z,57.05
2023-04-23T09:42:42.236Z,58.72
2023-04-23T09:45:13.759Z,56.59
2023-04-23T09:47:43.393Z,56.57
2023-04-23T09:50:12.175Z,56.14
2023-04-23T09:52:41.034Z,53.94
2023-04-23T09:55:09.523Z,53.33
2023-04-23T09:57:38.089Z,56.32
2023-04-23T10:00:17.517Z,55.46
2023-04-23T10:02:48.643Z,54.81
2023-04-23T10:05:24.321Z,52.43
2023-04-23T10:07:57.283Z,51.38
2023-04-23T10:10:25.694Z,50.56
2023-04-23T10:12:55.817Z,50.35
2023-04-23T10:15:27.862Z,52.56
2023-04-23T10:17:56.530Z,52.31
2023-04-23T10:20:24.738Z,50.13
2023-04-23T10:22:54.625Z,49.93
2023-04-23T10:25:23.839Z,50.75
2023-04-23T10:27:54.758Z,50.72
2023-04-23T10:30:23.328Z,49.68
2023-04-23T10:32:52.651Z,49.93
2023-04-23T10:35:20.368Z,48.88
2023-04-23T10:37:49.260Z,48.27
2023-04-23T10:40:21.905Z,47.27
2023-04-23T10:42:50.368Z,48.80
2023-04-23T10:45:24.816Z,49.00
2023-04-23T10:47:56.176Z,45.31
2023-04-23T10:50:26.682Z,46.63
2023-04-23T10:52:56.861Z,45.11
2023-04-23T10:55:26.103Z,44.87
2023-04-23T10:58:00.841Z,44.66
2023-04-23T11:00:31.174Z,43.38
2023-04-23T11:03:00.370Z,44.33
2023-04-23T11:05:29.174Z,44.61
2023-04-23T11:08:18.736Z,45.72
2023-04-23T11:10:57.391Z,46.48
2023-04-23T11:13:25.914Z,46.37
2023-04-23T11:16:19.501Z,45.85
2023-04-23T11:18:59.228Z,47.08
2023-04-23T11:21:57.161Z,44.62
2023-04-23T11:24:24.978Z,44.86
2023-04-23T11:26:54.395Z,45.63
2023-04-23T11:29:24.697Z,46.42
2023-04-23T11:34:30.073Z,47.52
2023-04-23T11:37:00.240Z,46.77
2023-04-23T11:39:28.263Z,46.74
2023-04-23T11:41:56.938Z,45.95
2023-04-23T11:44:24.583Z,45.52
2023-04-23T11:46:52.176Z,45.87
2023-04-23T11:49:20.104Z,44.37
2023-04-23T11:51:49.619Z,42.78
2023-04-23T11:54:17.176Z,43.79
2023-04-23T11:56:45.623Z,44.23
2023-04-23T11:59:13.247Z,42.32
2023-04-23T12:01:51.566Z,38.90
2023-04-23T12:04:21.854Z,38.32
2023-04-23T12:06:52.206Z,37.94
2023-04-23T12:09:23.245Z,36.41
2023-04-23T12:11:52.001Z,34.21
2023-04-23T12:14:23.909Z,35.00
2023-04-23T12:16:52.930Z,34.79
2023-04-23T12:19:22.479Z,34.71
2023-04-23T12:21:54.590Z,33.94
2023-04-23T12:24:23.474Z,33.77
2023-04-23T12:26:54.334Z,32.69
2023-04-23T12:29:22.981Z,34.12
2023-04-23T12:31:52.117Z,33.50
2023-04-23T12:34:21.171Z,33.24
2023-04-23T12:36:50.485Z,34.53
2023-04-23T12:39:37.080Z,35.20
2023-04-23T12:42:06.532Z,35.01
2023-04-23T12:44:35.794Z,34.34
2023-04-23T12:47:05.160Z,34.88
2023-04-23T12:49:33.773Z,34.77
2023-04-23T12:52:02.653Z,34.35
2023-04-23T12:54:31.596Z,34.50
2023-04-23T12:57:02.775Z,32.95
2023-04-23T12:59:30.740Z,33.03
2023-04-23T13:02:01.796Z,34.38
2023-04-23T13:04:29.671Z,31.88
2023-04-23T13:06:57.304Z,30.68
2023-04-23T13:09:27.075Z,28.27
2023-04-23T13:11:55.338Z,29.44
2023-04-23T13:14:24.380Z,28.99
2023-04-23T13:16:52.791Z,27.50
2023-04-23T13:19:20.671Z,25.09
2023-04-23T13:21:48.613Z,25.33
2023-04-23T13:24:16.321Z,24.06
2023-04-23T13:26:43.942Z,24.36
2023-04-23T13:29:12.245Z,24.24
2023-04-23T13:31:41.299Z,26.44
2023-04-23T13:34:09.095Z,27.21
2023-04-23T13:36:37.117Z,28.02
2023-04-23T13:39:04.837Z,27.30
2023-04-23T13:41:32.424Z,27.17
2023-04-23T13:44:00.970Z,24.61
2023-04-23T13:46:28.676Z,25.81
2023-04-23T13:48:57.740Z,23.92
2023-04-23T13:51:34.643Z,24.15
2023-04-23T13:54:03.142Z,25.41
2023-04-23T13:56:31.057Z,25.05
2023-04-23T13:59:12.023Z,24.60
2023-04-23T14:01:47.125Z,24.16
2023-04-23T14:04:16.367Z,24.77
2023-04-23T14:06:44.223Z,25.40
2023-04-23T14:09:12.147Z,26.62
2023-04-23T14:11:41.382Z,26.62
2023-04-23T14:14:09.084Z,27.98
2023-04-23T14:16:36.693Z,28.70
2023-04-23T14:19:04.290Z,28.66
2023-04-23T14:21:33.694Z,28.95
2023-04-23T14:24:03.567Z,28.54
2023-04-23T14:26:47.512Z,28.75
2023-04-23T14:29:26.102Z,29.95
2023-04-23T14:31:53.713Z,30.05
2023-04-23T14:34:21.465Z,29.67
2023-04-23T14:36:52.596Z,30.60
2023-04-23T14:39:20.288Z,29.77
2023-04-23T14:41:47.815Z,29.92
2023-04-23T14:44:15.335Z,30.37
2023-04-23T14:46:42.897Z,28.68
2023-04-23T14:49:10.496Z,30.17
2023-04-23T14:51:38.298Z,31.22
2023-04-23T14:54:07.274Z,30.19
2023-04-23T14:56:34.864Z,31.73
2023-04-23T14:59:02.938Z,32.05
2023-04-23T15:01:31.029Z,32.74
2023-04-23T15:03:58.665Z,32.49
2023-04-23T15:06:26.424Z,32.88
2023-04-23T15:08:54.023Z,32.46
2023-04-23T15:11:23.096Z,30.96
2023-04-23T15:13:56.336Z,28.55
2023-04-23T15:16:46.693Z,28.55
2023-04-23T15:19:14.882Z,26.69
2023-04-23T15:21:42.920Z,26.43
2023-04-23T15:24:10.546Z,25.89
2023-04-23T15:26:39.583Z,25.41
2023-04-23T15:29:08.639Z,26.41
2023-04-23T15:31:36.578Z,26.62
2023-04-23T15:34:06.101Z,27.55
2023-04-23T15:36:35.319Z,28.02
2023-04-23T15:39:02.932Z,28.05
2023-04-23T15:41:30.514Z,27.83
2023-04-23T15:44:00.229Z,29.52
2023-04-23T15:46:27.827Z,30.08
2023-04-23T15:48:55.401Z,30.56
2023-04-23T15:51:23.002Z,32.50
2023-04-23T15:53:51.392Z,33.02
2023-04-23T15:56:18.969Z,34.32
2023-04-23T15:58:46.548Z,41.31
2023-04-23T16:01:16.106Z,44.59
2023-04-23T16:03:53.554Z,46.98
2023-04-23T16:06:29.679Z,52.41
2023-04-23T16:08:57.216Z,55.44
2023-04-23T16:11:27.421Z,57.47
2023-04-23T16:13:56.114Z,58.23
2023-04-23T16:16:25.114Z,60.36
2023-04-23T16:18:53.292Z,61.29
2023-04-23T16:21:21.130Z,62.26
2023-04-23T16:23:48.777Z,62.15
2023-04-23T16:26:16.386Z,63.51
2023-04-23T16:28:44.560Z,64.16
2023-04-23T16:31:12.234Z,65.18
2023-04-23T16:33:41.355Z,67.32
2023-04-23T16:36:12.836Z,70.66
2023-04-23T16:38:40.476Z,72.74
2023-04-23T16:41:08.050Z,75.90
2023-04-23T16:43:35.818Z,81.09
2023-04-23T16:46:03.514Z,80.82
2023-04-23T16:48:31.106Z,81.26
2023-04-23T16:51:00.234Z,84.82
2023-04-23T16:53:27.796Z,85.66
2023-04-23T16:55:55.923Z,82.96
2023-04-23T16:58:23.487Z,85.36
2023-04-23T17:00:51.090Z,85.06
2023-04-23T17:03:18.798Z,85.53
2023-04-23T17:05:50.304Z,84.97
2023-04-23T17:08:19.544Z,85.51
2023-04-23T17:10:47.269Z,85.50
2023-04-23T17:13:14.874Z,84.91
2023-04-23T17:15:43.120Z,84.69
2023-04-23T17:18:12.475Z,85.31
2023-04-23T17:20:40.248Z,85.61
2023-04-23T17:23:07.837Z,84.72
2023-04-23T17:25:36.678Z,84.21
2023-04-23T17:28:04.711Z,84.14
2023-04-23T17:30:32.407Z,83.99
2023-04-23T17:33:00.272Z,84.39
2023-04-23T17:35:27.926Z,84.12
2023-04-23T17:37:55.771Z,83.71
2023-04-23T17:40:23.573Z,83.96
2023-04-23T17:42:52.564Z,83.78
2023-04-23T17:45:20.142Z,84.23
2023-04-23T17:47:47.880Z,84.60
2023-04-23T17:50:15.769Z,84.93
2023-04-23T17:52:44.971Z,85.58
2023-04-23T17:55:13.008Z,87.00
2023-04-23T17:57:40.832Z,87.85
2023-04-23T18:00:12.273Z,88.09
2023-04-23T18:02:41.329Z,88.17
2023-04-23T18:05:09.965Z,87.32
2023-04-23T18:07:37.724Z,87.87
2023-04-23T18:10:06.656Z,89.12
2023-04-23T18:12:34.687Z,89.77
2023-04-23T18:15:02.359Z,90.71
2023-04-23T18:17:31.326Z,90.85
2023-04-23T18:19:58.936Z,91.46
2023-04-23T18:22:26.570Z,91.52
2023-04-23T18:24:54.207Z,91.69
2023-04-23T18:27:21.756Z,92.08
2023-04-23T18:29:49.456Z,91.80
2023-04-23T18:32:27.609Z,92.42
2023-04-23T18:35:02.923Z,92.89
2023-04-23T18:37:37.244Z,92.93
2023-04-23T18:40:05.616Z,93.17
2023-04-23T18:42:33.206Z,93.46
2023-04-23T18:45:03.720Z,94.09
2023-04-23T18:47:33.317Z,94.08
2023-04-23T18:50:05.257Z,94.73
2023-04-23T18:52:32.954Z,95.29
2023-04-23T18:55:00.580Z,95.63
2023-04-23T18:57:28.610Z,95.84
2023-04-23T18:59:56.370Z,95.77
2023-04-23T19:02:34.513Z,94.48
2023-04-23T19:05:05.417Z,90.42
2023-04-23T19:07:33.483Z,91.21
2023-04-23T19:10:01.129Z,91.73
2023-04-23T19:12:28.694Z,91.32
2023-04-23T19:14:56.271Z,90.95
2023-04-23T19:17:23.842Z,90.71
2023-04-23T19:19:51.488Z,91.04
2023-04-23T19:22:21.991Z,91.45
2023-04-23T19:24:49.611Z,91.62
2023-04-23T19:27:17.248Z,92.00
2023-04-23T19:29:45.783Z,92.18
2023-04-23T19:32:13.340Z,92.59
2023-04-23T19:34:41.239Z,91.27
2023-04-23T19:37:08.803Z,90.28
2023-04-23T19:39:37.753Z,90.09
2023-04-23T19:42:06.962Z,89.29
2023-04-23T19:44:34.884Z,89.47
2023-04-23T19:47:02.609Z,89.22
2023-04-23T19:49:30.356Z,89.72
2023-04-23T19:51:59.118Z,89.77
2023-04-23T19:54:27.198Z,89.68
2023-04-23T19:56:56.100Z,89.68
2023-04-23T19:59:23.791Z,89.39
2023-04-23T20:01:52.133Z,90.13
2023-04-23T20:04:19.774Z,91.28
2023-04-23T20:06:47.422Z,91.24
2023-04-23T20:09:19.072Z,90.66
2023-04-23T20:11:47.428Z,91.44
2023-04-23T20:14:16.457Z,91.58
2023-04-23T20:16:44.323Z,92.69
2023-04-23T20:19:13.860Z,91.65
2023-04-23T20:21:42.747Z,92.51
2023-04-23T20:24:11.532Z,92.25
2023-04-23T20:26:40.530Z,92.20
2023-04-23T20:29:08.261Z,88.66
2023-04-23T20:31:37.597Z,88.11
2023-04-23T20:34:05.270Z,88.61
2023-04-23T20:36:33.279Z,86.84
2023-04-23T20:39:04.891Z,86.44
2023-04-23T20:41:34.389Z,86.46
2023-04-23T20:44:03.055Z,85.56
2023-04-23T20:46:32.591Z,86.83
2023-04-23T20:49:03.091Z,86.22
2023-04-23T20:51:32.999Z,86.42
2023-04-23T20:54:01.592Z,82.91
2023-04-23T20:56:29.781Z,84.63
2023-04-23T20:58:57.428Z,84.07
2023-04-23T21:01:25.588Z,84.52
2023-04-23T21:03:54.188Z,83.98
2023-04-23T21:06:23.343Z,84.67
2023-04-23T21:08:50.904Z,85.07
2023-04-23T21:11:21.098Z,83.70
2023-04-23T21:13:48.799Z,83.88
2023-04-23T21:16:16.401Z,84.93
2023-04-23T21:18:44.778Z,83.31
2023-04-23T21:21:12.330Z,83.69
2023-04-23T21:23:41.428Z,83.57
2023-04-23T21:26:09.104Z,83.25
2023-04-23T21:28:37.553Z,85.11
2023-04-23T21:31:11.440Z,86.09
2023-04-23T21:33:39.304Z,85.80
2023-04-23T21:36:07.288Z,86.86
2023-04-23T21:38:34.930Z,87.28
2023-04-23T21:41:04.130Z,86.92
2023-04-23T21:43:35.501Z,86.90
2023-04-23T21:46:03.125Z,87.65
2023-04-23T21:48:31.839Z,88.45
2023-04-23T21:50:59.468Z,88.71
2023-04-23T21:53:27.233Z,85.36
2023-04-23T21:55:54.784Z,88.18
2023-04-23T21:58:23.734Z,89.51
2023-04-23T22:00:51.407Z,86.95
2023-04-23T22:03:23.755Z,85.95
2023-04-23T22:06:06.343Z,85.88
2023-04-23T22:08:34.676Z,88.23
2023-04-23T22:11:02.242Z,89.50
2023-04-23T22:13:31.211Z,90.69
2023-04-23T22:15:59.406Z,89.74
2023-04-23T22:18:27.683Z,89.65
2023-04-23T22:20:55.335Z,87.67
2023-04-23T22:23:23.048Z,84.78
2023-04-23T22:25:50.809Z,86.37
2023-04-23T22:28:18.463Z,86.14
2023-04-23T22:30:47.370Z,84.62
2023-04-23T22:33:15.053Z,86.03
2023-04-23T22:35:42.759Z,84.84
2023-04-23T22:38:10.369Z,84.43
2023-04-23T22:40:37.920Z,84.25
2023-04-23T22:43:06.416Z,84.41
2023-04-23T22:45:33.997Z,85.91
2023-04-23T22:48:02.997Z,85.98
2023-04-23T22:50:30.867Z,85.54
2023-04-23T22:52:58.398Z,86.05
2023-04-23T22:55:26.147Z,87.07
2023-04-23T22:57:53.685Z,87.38
2023-04-23T23:00:21.711Z,88.15
2023-04-23T23:02:49.443Z,89.30
2023-04-23T23:05:18.573Z,90.54
2023-04-23T23:07:46.230Z,91.41
2023-04-23T23:10:13.806Z,91.77
2023-04-23T23:12:41.400Z,91.86
2023-04-23T23:15:09.927Z,91.72
2023-04-23T23:17:37.567Z,90.55
2023-04-23T23:20:07.064Z,91.10
2023-04-23T23:22:36.074Z,92.56
2023-04-23T23:25:03.830Z,93.34
2023-04-23T23:27:31.358Z,93.31
2023-04-23T23:29:58.856Z,94.07
2023-04-23T23:32:26.441Z,93.57
2023-04-23T23:34:54.072Z,89.90
2023-04-23T23:37:21.618Z,89.71
2023-04-23T23:39:50.486Z,88.85
2023-04-23T23:42:18.017Z,86.04
2023-04-23T23:44:45.561Z,85.07
2023-04-23T23:47:13.172Z,88.23
2023-04-23T23:49:41.968Z,84.27
2023-04-23T23:52:09.724Z,85.54
2023-04-23T23:54:37.288Z,87.16
2023-04-23T23:57:06.345Z,87.75
2023-04-23T23:59:33.898Z,86.72
